createdAt,value
2023-05-20T00:01:31.201Z,99780.78
2023-05-20T00:04:35.275Z,99777.28
2023-05-20T00:07:39.295Z,99779.16
2023-05-20T00:10:43.244Z,99778.78
2023-05-20T00:13:48.820Z,99774.41
2023-05-20T00:16:52.895Z,99779.50
2023-05-20T00:19:56.885Z,99787.97
2023-05-20T00:23:00.801Z,99772.97
2023-05-20T00:26:04.797Z,99776.88
2023-05-20T00:29:10.489Z,99770.78
2023-05-20T00:32:14.621Z,99765.53
2023-05-20T00:35:18.628Z,99764.06
2023-05-20T00:38:22.648Z,99770.25
2023-05-20T00:41:26.593Z,99770.25
2023-05-20T00:44:32.046Z,99771.53
2023-05-20T00:47:37.780Z,99770.38
2023-05-20T00:50:42.301Z,99766.09
2023-05-20T00:53:46.550Z,99764.47
2023-05-20T00:56:51.196Z,99765.63
2023-05-20T00:59:57.040Z,99760.34
2023-05-20T01:03:01.244Z,99759.56
2023-05-20T01:06:05.505Z,99751.44
2023-05-20T01:09:09.649Z,99750.72
2023-05-20T01:12:18.870Z,99745.88
2023-05-20T01:15:27.664Z,99742.06
2023-05-20T01:18:33.913Z,99747.38
2023-05-20T01:21:38.990Z,99747.63
2023-05-20T01:24:46.053Z,99745.41
2023-05-20T01:27:50.607Z,99748.72
2023-05-20T01:30:58.115Z,99749.22
2023-05-20T01:34:02.989Z,99750.38
2023-05-20T01:37:08.061Z,99751.09
2023-05-20T01:40:16.934Z,99746.06
2023-05-20T01:43:21.991Z,99745.25
2023-05-20T01:46:25.973Z,99745.53
2023-05-20T01:49:29.996Z,99741.69
2023-05-20T01:52:33.916Z,99741.63
2023-05-20T01:55:39.274Z,99738.63
2023-05-20T01:58:43.428Z,99739.31
2023-05-20T02:01:47.583Z,99735.22
2023-05-20T02:04:53.744Z,99733.34
2023-05-20T02:07:57.756Z,99728.41
2023-05-20T02:11:03.135Z,99717.78
2023-05-20T02:14:09.719Z,99714.78
2023-05-20T02:17:14.933Z,99707.25
2023-05-20T02:20:19.380Z,99701.59
2023-05-20T02:23:23.667Z,99701.63
2023-05-20T02:26:29.161Z,99701.59
2023-05-20T02:29:33.449Z,99705.50
2023-05-20T02:32:37.557Z,99711.09
2023-05-20T02:35:41.806Z,99710.50
2023-05-20T02:38:46.237Z,99710.34
2023-05-20T02:41:51.564Z,99705.44
2023-05-20T02:44:58.744Z,99701.50
2023-05-20T02:48:02.714Z,99706.06
2023-05-20T02:51:08.507Z,99709.06
2023-05-20T02:54:12.580Z,99707.44
2023-05-20T02:57:18.085Z,99707.25
2023-05-20T03:00:23.964Z,99712.44
2023-05-20T03:03:28.678Z,99707.16
2023-05-20T03:06:33.351Z,99716.47
2023-05-20T03:09:37.677Z,99722.84
2023-05-20T03:12:43.405Z,99710.63
2023-05-20T03:15:47.795Z,99720.44
2023-05-20T03:18:52.549Z,99716.13
2023-05-20T03:21:56.829Z,99718.91
2023-05-20T03:25:02.787Z,99726.41
2023-05-20T03:28:08.497Z,99747.38
2023-05-20T03:31:14.548Z,99761.59
2023-05-20T03:34:18.507Z,99773.59
2023-05-20T03:37:24.460Z,99778.81
2023-05-20T03:40:28.385Z,99789.78
2023-05-20T03:43:33.872Z,99799.06
2023-05-20T03:46:38.338Z,99793.91
2023-05-20T03:49:42.787Z,99794.13
2023-05-20T03:52:46.496Z,99779.81
2023-05-20T03:55:52.503Z,99777.94
2023-05-20T03:58:58.508Z,99778.38
2023-05-20T04:02:03.003Z,99772.16
2023-05-20T04:05:09.154Z,99780.28
2023-05-20T04:08:15.054Z,99773.19
2023-05-20T04:11:18.878Z,99772.72
2023-05-20T04:14:24.426Z,99773.19
2023-05-20T04:17:30.323Z,99785.41
2023-05-20T04:20:34.667Z,99782.91
2023-05-20T04:23:38.977Z,99786.19
2023-05-20T04:26:42.925Z,99771.34
2023-05-20T04:29:50.395Z,99776.69
2023-05-20T04:32:55.989Z,99776.75
2023-05-20T04:36:02.007Z,99772.91
2023-05-20T04:39:06.835Z,99776.06
2023-05-20T04:42:11.476Z,99766.09
2023-05-20T04:45:16.917Z,99774.91
2023-05-20T04:48:22.650Z,99782.84
2023-05-20T04:51:29.795Z,99791.16
2023-05-20T04:54:34.462Z,99787.34
2023-05-20T04:57:42.533Z,99793.47
2023-05-20T05:00:48.665Z,99791.44
2023-05-20T05:03:52.712Z,99795.63
2023-05-20T05:06:58.300Z,99791.22
2023-05-20T05:10:02.400Z,99788.09
2023-05-20T05:13:08.101Z,99778.75
2023-05-20T05:16:13.644Z,99788.06
2023-05-20T05:19:17.968Z,99788.53
2023-05-20T05:22:21.989Z,99791.72
2023-05-20T05:25:26.707Z,99783.25
2023-05-20T05:28:30.919Z,99785.53
2023-05-20T05:31:37.011Z,99787.84
2023-05-20T05:34:41.324Z,99799.88
2023-05-20T05:37:45.861Z,99796.41
2023-05-20T05:40:49.889Z,99800.44
2023-05-20T05:43:54.812Z,99791.38
2023-05-20T05:47:02.762Z,99792.44
2023-05-20T05:50:08.108Z,99791.06
2023-05-20T05:53:12.655Z,99792.69
2023-05-20T05:56:19.368Z,99785.81
2023-05-20T05:59:24.092Z,99784.56
2023-05-20T06:02:30.042Z,99776.22
2023-05-20T06:05:34.722Z,99777.66
2023-05-20T06:08:39.045Z,99782.56
2023-05-20T06:11:44.784Z,99778.53
2023-05-20T06:14:49.254Z,99774.56
2023-05-20T06:17:55.043Z,99779.75
2023-05-20T06:20:59.754Z,99778.66
2023-05-20T06:24:04.334Z,99774.88
2023-05-20T06:27:09.173Z,99773.44
2023-05-20T06:30:14.136Z,99774.66
2023-05-20T06:33:20.543Z,99777.63
2023-05-20T06:36:24.906Z,99773.78
2023-05-20T06:39:28.985Z,99760.59
2023-05-20T06:42:33.116Z,99765.09
2023-05-20T06:45:41.216Z,99764.22
2023-05-20T06:49:01.316Z,99764.69
2023-05-20T06:52:05.751Z,99764.88
2023-05-20T06:55:11.279Z,99764.31
2023-05-20T06:58:17.341Z,99763.16
2023-05-20T07:01:21.633Z,99768.19
2023-05-20T07:04:27.173Z,99763.91
2023-05-20T07:07:31.254Z,99760.56
2023-05-20T07:10:36.080Z,99772.28
2023-05-20T07:13:40.671Z,99775.28
2023-05-20T07:16:44.957Z,99788.53
2023-05-20T07:19:51.156Z,99781.28
2023-05-20T07:22:55.313Z,99777.84
2023-05-20T07:26:07.292Z,99771.69
2023-05-20T07:29:11.905Z,99770.44
2023-05-20T07:32:16.595Z,99767.28
2023-05-20T07:35:22.333Z,99776.97
2023-05-20T07:38:26.730Z,99785.28
2023-05-20T07:41:37.937Z,99781.88
2023-05-20T07:44:43.626Z,99777.97
2023-05-20T07:47:47.780Z,99772.63
2023-05-20T07:50:53.172Z,99772.22
2023-05-20T07:53:57.787Z,99774.00
2023-05-20T07:57:02.541Z,99776.56
2023-05-20T08:00:08.955Z,99776.34
2023-05-20T08:03:22.571Z,99765.91
2023-05-20T08:06:40.193Z,99765.97
2023-05-20T08:09:48.031Z,99761.81
2023-05-20T08:12:54.066Z,99764.69
2023-05-20T08:15:58.194Z,99767.16
2023-05-20T08:19:03.242Z,99773.66
2023-05-20T08:22:09.073Z,99774.91
2023-05-20T08:25:13.109Z,99763.56
2023-05-20T08:28:17.474Z,99757.91
2023-05-20T08:31:22.330Z,99752.47
2023-05-20T08:34:27.458Z,99754.13
2023-05-20T08:37:32.923Z,99753.59
2023-05-20T08:40:37.391Z,99754.59
2023-05-20T08:43:42.425Z,99758.66
2023-05-20T08:46:49.615Z,99759.00
2023-05-20T08:49:53.572Z,99754.81
2023-05-20T08:52:59.616Z,99748.03
2023-05-20T08:56:04.245Z,99749.84
2023-05-20T08:59:08.294Z,99746.41
2023-05-20T09:02:12.989Z,99737.19
2023-05-20T09:05:17.456Z,99758.19
2023-05-20T09:08:27.177Z,99750.56
2023-05-20T09:11:32.204Z,99742.47
2023-05-20T09:14:36.288Z,99746.06
2023-05-20T09:17:40.670Z,99744.72
2023-05-20T09:20:44.584Z,99746.97
2023-05-20T09:23:50.903Z,99744.72
2023-05-20T09:26:55.177Z,99740.94
2023-05-20T09:29:59.272Z,99743.09
2023-05-20T09:33:08.061Z,99744.16
2023-05-20T09:36:13.938Z,99747.00
2023-05-20T09:39:27.481Z,99752.28
2023-05-20T09:42:39.680Z,99746.97
2023-05-20T09:45:44.100Z,99743.34
2023-05-20T09:48:48.292Z,99739.72
2023-05-20T09:51:54.826Z,99725.06
2023-05-20T09:55:01.951Z,99725.66
2023-05-20T09:58:05.934Z,99727.88
2023-05-20T10:01:10.088Z,99727.69
2023-05-20T10:04:17.561Z,99719.19
2023-05-20T10:07:42.282Z,99717.13
2023-05-20T10:10:52.370Z,99717.19
2023-05-20T10:14:13.861Z,99724.25
2023-05-20T10:17:26.879Z,99720.94
2023-05-20T10:20:32.085Z,99716.53
2023-05-20T10:23:36.283Z,99714.81
2023-05-20T10:26:43.601Z,99719.91
2023-05-20T10:29:51.952Z,99715.59
2023-05-20T10:32:57.765Z,99709.34
2023-05-20T10:36:02.956Z,99710.59
2023-05-20T10:39:07.582Z,99704.56
2023-05-20T10:42:13.200Z,99702.59
2023-05-20T10:45:27.503Z,99701.72
2023-05-20T10:48:32.975Z,99709.88
2023-05-20T10:51:39.172Z,99709.34
2023-05-20T10:54:47.742Z,99715.31
2023-05-20T10:57:55.399Z,99708.88
2023-05-20T11:00:59.726Z,99717.09
2023-05-20T11:04:06.092Z,99720.00
2023-05-20T11:07:10.238Z,99712.44
2023-05-20T11:10:14.712Z,99707.53
2023-05-20T11:13:20.650Z,99706.16
2023-05-20T11:16:24.995Z,99707.53
2023-05-20T11:19:29.615Z,99712.25
2023-05-20T11:22:33.681Z,99707.94
2023-05-20T11:25:37.679Z,99705.97
2023-05-20T11:28:43.281Z,99700.06
2023-05-20T11:31:51.577Z,99688.72
2023-05-20T11:34:55.682Z,99687.25
2023-05-20T11:38:03.685Z,99687.88
2023-05-20T11:41:07.689Z,99688.34
2023-05-20T11:44:14.357Z,99685.06
2023-05-20T11:47:21.304Z,99681.47
2023-05-20T11:50:26.731Z,99687.41
2023-05-20T11:53:30.699Z,99688.00
2023-05-20T11:56:36.923Z,99685.09
2023-05-20T11:59:42.483Z,99690.66
2023-05-20T12:02:46.675Z,99687.13
2023-05-20T12:05:51.679Z,99683.16
2023-05-20T12:08:55.659Z,99673.72
2023-05-20T12:11:59.680Z,99680.78
2023-05-20T12:15:05.559Z,99675.25
2023-05-20T12:18:10.388Z,99676.84
2023-05-20T12:21:14.805Z,99671.91
2023-05-20T12:24:18.861Z,99676.63
2023-05-20T12:27:23.055Z,99665.50
2023-05-20T12:30:28.656Z,99661.13
2023-05-20T12:33:32.712Z,99670.41
2023-05-20T12:36:36.678Z,99655.16
2023-05-20T12:39:40.753Z,99656.97
2023-05-20T12:42:46.453Z,99656.75
2023-05-20T12:45:52.695Z,99646.09
2023-05-20T12:48:56.773Z,99643.38
2023-05-20T12:52:03.520Z,99638.44
2023-05-20T12:55:14.193Z,99630.00
2023-05-20T12:58:18.337Z,99621.38
2023-05-20T13:01:23.889Z,99625.69
2023-05-20T13:04:27.992Z,99616.56
2023-05-20T13:07:32.402Z,99611.28
2023-05-20T13:10:36.736Z,99609.41
2023-05-20T13:13:41.846Z,99612.72
2023-05-20T13:16:47.560Z,99610.69
2023-05-20T13:19:51.579Z,99611.38
2023-05-20T13:22:55.581Z,99613.53
2023-05-20T13:25:59.617Z,99606.16
2023-05-20T13:29:03.703Z,99606.03
2023-05-20T13:32:09.667Z,99599.56
2023-05-20T13:35:15.002Z,99602.94
2023-05-20T13:38:19.108Z,99595.03
2023-05-20T13:41:23.180Z,99586.91
2023-05-20T13:44:27.819Z,99580.78
2023-05-20T13:47:33.886Z,99579.84
2023-05-20T13:50:38.062Z,99587.59
2023-05-20T13:53:42.215Z,99581.09
2023-05-20T13:56:46.307Z,99588.06
2023-05-20T13:59:50.285Z,99584.09
2023-05-20T14:02:55.841Z,99575.88
2023-05-20T14:06:00.214Z,99567.59
2023-05-20T14:09:04.585Z,99565.47
2023-05-20T14:12:09.596Z,99555.94
2023-05-20T14:15:13.726Z,99555.59
2023-05-20T14:18:19.443Z,99557.41
2023-05-20T14:21:23.519Z,99561.13
2023-05-20T14:24:27.663Z,99554.94
2023-05-20T14:27:31.705Z,99553.34
2023-05-20T14:30:36.177Z,99548.78
2023-05-20T14:33:41.754Z,99547.34
2023-05-20T14:36:45.957Z,99549.94
2023-05-20T14:39:50.019Z,99537.22
2023-05-20T14:42:54.026Z,99539.75
2023-05-20T14:45:58.052Z,99539.53
2023-05-20T14:49:03.683Z,99535.56
2023-05-20T14:52:07.976Z,99530.59
2023-05-20T14:55:11.989Z,99517.38
2023-05-20T14:58:16.104Z,99509.28
2023-05-20T15:01:20.051Z,99507.22
2023-05-20T15:04:25.680Z,99506.03
2023-05-20T15:07:29.716Z,99504.81
2023-05-20T15:10:33.989Z,99514.72
2023-05-20T15:13:40.322Z,99517.03
2023-05-20T15:16:44.725Z,99513.31
2023-05-20T15:19:50.267Z,99522.84
2023-05-20T15:22:55.326Z,99525.38
2023-05-20T15:25:59.874Z,99513.56
2023-05-20T15:29:04.078Z,99512.97
2023-05-20T15:32:08.727Z,99511.97
2023-05-20T15:35:14.294Z,99499.81
2023-05-20T15:38:18.762Z,99496.38
2023-05-20T15:41:23.423Z,99498.47
2023-05-20T15:44:29.055Z,99483.88
2023-05-20T15:47:33.039Z,99492.22
2023-05-20T15:50:38.861Z,99491.78
2023-05-20T15:53:42.977Z,99490.44
2023-05-20T15:56:46.971Z,99482.91
2023-05-20T15:59:51.177Z,99481.41
2023-05-20T16:02:56.810Z,99484.94
2023-05-20T16:06:02.472Z,99482.25
2023-05-20T16:09:06.456Z,99479.41
2023-05-20T16:12:10.557Z,99480.59
2023-05-20T16:15:14.782Z,99485.94
2023-05-20T16:18:19.173Z,99485.94
2023-05-20T16:21:25.344Z,99477.59
2023-05-20T16:24:29.338Z,99479.81
2023-05-20T16:27:33.811Z,99486.28
2023-05-20T16:30:38.159Z,99485.56
2023-05-20T16:33:42.175Z,99490.63
2023-05-20T16:36:47.781Z,99487.44
2023-05-20T16:39:51.711Z,99488.78
2023-05-20T16:42:55.870Z,99496.56
2023-05-20T16:46:00.034Z,99496.94
2023-05-20T16:49:04.130Z,99489.47
2023-05-20T16:52:10.112Z,99488.72
2023-05-20T16:55:14.247Z,99499.53
2023-05-20T16:58:18.366Z,99498.19
2023-05-20T17:01:23.374Z,99491.78
2023-05-20T17:04:27.379Z,99498.50
2023-05-20T17:07:33.871Z,99496.09
2023-05-20T17:10:37.863Z,99496.34
2023-05-20T17:13:42.265Z,99498.63
2023-05-20T17:16:46.255Z,99492.91
2023-05-20T17:19:50.201Z,99496.25
2023-05-20T17:22:55.736Z,99496.19
2023-05-20T17:25:59.635Z,99498.34
2023-05-20T17:29:03.780Z,99512.56
2023-05-20T17:32:08.682Z,99509.47
2023-05-20T17:35:12.661Z,99513.28
2023-05-20T17:38:18.176Z,99506.94
2023-05-20T17:41:22.235Z,99514.38
2023-05-20T17:44:26.322Z,99505.94
2023-05-20T17:47:30.456Z,99514.34
2023-05-20T17:50:34.844Z,99513.47
2023-05-20T17:53:40.544Z,99516.38
2023-05-20T17:56:47.807Z,99523.94
2023-05-20T17:59:51.807Z,99526.88
2023-05-20T18:02:57.999Z,99525.59
2023-05-20T18:06:02.123Z,99522.53
2023-05-20T18:09:07.733Z,99523.41
2023-05-20T18:12:11.730Z,99522.28
2023-05-20T18:15:18.104Z,99517.16
2023-05-20T18:18:22.093Z,99523.88
2023-05-20T18:21:26.889Z,99518.66
2023-05-20T18:24:32.496Z,99522.81
2023-05-20T18:27:36.357Z,99527.50
2023-05-20T18:30:40.431Z,99528.00
2023-05-20T18:33:44.365Z,99529.75
2023-05-20T18:36:48.565Z,99530.81
2023-05-20T18:39:54.055Z,99542.44
2023-05-20T18:42:58.613Z,99537.25
2023-05-20T18:46:02.775Z,99548.94
2023-05-20T18:49:07.043Z,99549.09
2023-05-20T18:52:11.268Z,99547.53
2023-05-20T18:55:16.899Z,99552.41
2023-05-20T18:58:21.024Z,99549.34
2023-05-20T19:01:25.122Z,99548.94
2023-05-20T19:04:29.205Z,99549.13
2023-05-20T19:07:33.472Z,99546.09
2023-05-20T19:10:38.912Z,99545.34
2023-05-20T19:13:42.973Z,99540.66
2023-05-20T19:16:47.232Z,99541.69
2023-05-20T19:19:51.252Z,99538.00
2023-05-20T19:22:55.245Z,99533.91
2023-05-20T19:26:00.973Z,99534.38
2023-05-20T19:29:04.991Z,99535.16
2023-05-20T19:32:09.478Z,99537.81
2023-05-20T19:35:13.495Z,99537.22
2023-05-20T19:38:17.709Z,99532.75
2023-05-20T19:41:23.357Z,99537.63
2023-05-20T19:44:27.228Z,99532.72
2023-05-20T19:47:31.212Z,99540.47
2023-05-20T19:50:36.738Z,99533.16
2023-05-20T19:53:40.728Z,99540.84
2023-05-20T19:56:46.432Z,99534.78
2023-05-20T19:59:52.228Z,99542.56
2023-05-20T20:02:58.402Z,99537.81
2023-05-20T20:06:02.664Z,99540.09
2023-05-20T20:09:06.667Z,99542.75
2023-05-20T20:12:12.262Z,99534.41
2023-05-20T20:15:16.444Z,99537.47
2023-05-20T20:18:20.365Z,99534.41
2023-05-20T20:21:26.023Z,99519.91
2023-05-20T20:24:30.092Z,99519.72
2023-05-20T20:27:35.676Z,99512.38
2023-05-20T20:30:39.784Z,99506.28
2023-05-20T20:33:43.923Z,99508.72
2023-05-20T20:36:48.601Z,99511.56
2023-05-20T20:39:52.601Z,99511.19
2023-05-20T20:42:58.741Z,99505.88
2023-05-20T20:46:02.897Z,99503.41
2023-05-20T20:49:06.916Z,99506.47
2023-05-20T20:52:11.397Z,99507.50
2023-05-20T20:55:15.671Z,99498.97
2023-05-20T20:58:21.291Z,99497.72
2023-05-20T21:01:25.835Z,99493.06
2023-05-20T21:04:29.966Z,99485.94
2023-05-20T21:07:34.004Z,99482.84
2023-05-20T21:10:38.570Z,99481.22
2023-05-20T21:13:44.203Z,99484.06
2023-05-20T21:16:48.172Z,99487.31
2023-05-20T21:19:52.228Z,99479.81
2023-05-20T21:22:56.137Z,99473.50
2023-05-20T21:26:00.225Z,99466.16
2023-05-20T21:29:06.393Z,99459.81
2023-05-20T21:32:10.412Z,99450.66
2023-05-20T21:35:14.451Z,99446.81
2023-05-20T21:38:18.494Z,99450.06
2023-05-20T21:41:23.746Z,99451.09
2023-05-20T21:44:29.268Z,99447.22
2023-05-20T21:47:33.268Z,99447.22
2023-05-20T21:50:37.307Z,99441.72
2023-05-20T21:53:41.388Z,99447.63
2023-05-20T21:56:45.448Z,99450.25
2023-05-20T21:59:51.045Z,99442.50
2023-05-20T22:02:55.183Z,99440.69
2023-05-20T22:05:59.174Z,99446.00
2023-05-20T22:09:03.951Z,99435.19
2023-05-20T22:12:08.177Z,99428.25
2023-05-20T22:15:13.939Z,99423.00
2023-05-20T22:18:18.038Z,99429.72
2023-05-20T22:21:22.172Z,99421.16
2023-05-20T22:24:26.145Z,99421.16
2023-05-20T22:27:30.220Z,99415.47
2023-05-20T22:30:35.927Z,99413.81
2023-05-20T22:33:41.792Z,99418.53
2023-05-20T22:36:45.780Z,99406.91
2023-05-20T22:39:49.794Z,99400.41
2023-05-20T22:42:53.942Z,99404.28
2023-05-20T22:45:59.538Z,99398.56
2023-05-20T22:49:03.554Z,99385.94
2023-05-20T22:52:08.025Z,99385.34
2023-05-20T22:55:12.955Z,99391.19
2023-05-20T22:58:17.269Z,99391.22
2023-05-20T23:01:22.718Z,99401.03
2023-05-20T23:04:26.802Z,99391.38
2023-05-20T23:07:31.533Z,99389.00
2023-05-20T23:10:35.601Z,99390.44
2023-05-20T23:13:39.568Z,99384.94
2023-05-20T23:16:45.541Z,99383.09
2023-05-20T23:19:49.602Z,99377.97
2023-05-20T23:22:53.573Z,99378.97
2023-05-20T23:25:57.667Z,99368.81
2023-05-20T23:29:01.748Z,99358.91
2023-05-20T23:32:09.146Z,99356.22
2023-05-20T23:35:13.540Z,99358.66
2023-05-20T23:38:17.979Z,99355.19
2023-05-20T23:41:22.750Z,99347.06
2023-05-20T23:44:26.854Z,99338.91
2023-05-20T23:47:32.430Z,99338.91
2023-05-20T23:50:36.460Z,99335.44
2023-05-20T23:53:41.289Z,99343.34
2023-05-20T23:56:45.448Z,99335.44
2023-05-20T23:59:50.249Z,99334.44
